Time;durP1;ratioP1;P1;durP2;ratioP2;P2;SDS_P1;SDS_P2;PMS_P1;PMS_P2;Temp;Humidity;BMP_temperature;BMP_pressure;BME280_temperature;BME280_humidity;BME280_pressure;Samples;Min_cycle;Max_cycle;Signal;HPM_P1;HPM_P2
2021/06/04 00:01:28;;;;;;;173.75;22.98;;;;;;;;;;3555186;40;20035;-60
2021/06/04 00:03:55;;;;;;;115.28;13.93;;;;;;;;;;3551998;40;20100;-60
2021/06/04 00:06:22;;;;;;;123.82;31.77;;;;;;;;;;3550829;40;20046;-60
2021/06/04 00:08:49;;;;;;;292.30;155.10;;;;;;;;;;3549183;40;20188;-60
2021/06/04 00:11:15;;;;;;;128.77;35.67;;;;;;;;;;3551046;40;20075;-60
2021/06/04 00:13:47;;;;;;;143.30;40.97;;;;;;;;;;3551992;40;20069;-60
2021/06/04 00:16:18;;;;;;;271.88;148.68;;;;;;;;;;3553793;40;20054;-60
2021/06/04 00:18:44;;;;;;;200.10;71.80;;;;;;;;;;3554522;40;20041;-60
2021/06/04 00:21:13;;;;;;;138.40;36.78;;;;;;;;;;3556036;40;20044;-60
2021/06/04 00:23:39;;;;;;;130.73;16.80;;;;;;;;;;3549370;40;20040;-60
2021/06/04 00:26:06;;;;;;;154.57;22.00;;;;;;;;;;3549784;40;20038;-60
2021/06/04 00:28:33;;;;;;;107.30;13.80;;;;;;;;;;3551074;40;20030;-60
2021/06/04 00:30:59;;;;;;;181.27;33.05;;;;;;;;;;3551812;40;20026;-60
2021/06/04 00:33:26;;;;;;;121.45;15.75;;;;;;;;;;3560431;40;20514;-60
2021/06/04 00:35:52;;;;;;;120.00;15.10;;;;;;;;;;3555439;40;20540;-60
2021/06/04 00:38:18;;;;;;;103.93;13.63;;;;;;;;;;3555548;40;20112;-60
2021/06/04 00:40:46;;;;;;;115.47;15.68;;;;;;;;;;3557552;40;20681;-60
2021/06/04 00:43:13;;;;;;;143.63;17.60;;;;;;;;;;3558531;40;20045;-60
2021/06/04 00:45:42;;;;;;;173.55;22.00;;;;;;;;;;3559287;40;20065;-60
2021/06/04 00:48:09;;;;;;;117.05;14.18;;;;;;;;;;3557923;40;20410;-60
2021/06/04 00:50:42;;;;;;;121.90;16.23;;;;;;;;;;3549841;40;20494;-60
2021/06/04 00:53:09;;;;;;;138.75;17.52;;;;;;;;;;3554133;40;20042;-60
2021/06/04 00:55:36;;;;;;;187.38;56.45;;;;;;;;;;3553991;40;20130;-60
2021/06/04 00:58:04;;;;;;;188.82;61.65;;;;;;;;;;3555097;40;20414;-60
2021/06/04 01:00:39;;;;;;;149.43;25.55;;;;;;;;;;3556139;40;20590;-60
2021/06/04 01:03:06;;;;;;;107.03;13.68;;;;;;;;;;3548980;40;20430;-60
2021/06/04 01:05:33;;;;;;;93.90;12.45;;;;;;;;;;3550636;40;20313;-60
2021/06/04 01:08:12;;;;;;;97.03;13.57;;;;;;;;;;3552048;40;20382;-60
2021/06/04 01:10:53;;;;;;;89.70;11.95;;;;;;;;;;3554160;40;20053;-60
2021/06/04 01:13:27;;;;;;;104.68;14.32;;;;;;;;;;3554426;40;20067;-60
2021/06/04 01:15:58;;;;;;;62.35;10.45;;;;;;;;;;3554577;40;20120;-60
2021/06/04 01:18:29;;;;;;;107.35;14.32;;;;;;;;;;3548574;40;20783;-60
2021/06/04 01:21:02;;;;;;;74.57;10.43;;;;;;;;;;3549042;40;20689;-60
2021/06/04 01:23:34;;;;;;;75.88;11.43;;;;;;;;;;3550246;40;20045;-60
2021/06/04 01:26:06;;;;;;;90.82;12.60;;;;;;;;;;3558689;40;20038;-60
2021/06/04 01:28:38;;;;;;;62.42;10.02;;;;;;;;;;3556652;40;20303;-60
2021/06/04 01:31:18;;;;;;;75.80;11.27;;;;;;;;;;3553048;40;20057;-60
2021/06/04 01:33:47;;;;;;;99.03;13.38;;;;;;;;;;3553813;40;20811;-60
2021/06/04 01:36:19;;;;;;;91.28;12.20;;;;;;;;;;3551676;40;20638;-60
2021/06/04 01:38:47;;;;;;;78.80;11.68;;;;;;;;;;3550749;40;20065;-60
2021/06/04 01:41:15;;;;;;;94.13;12.65;;;;;;;;;;3550920;40;20719;-60
2021/06/04 01:43:48;;;;;;;40.30;9.77;;;;;;;;;;3552513;40;20058;-60
2021/06/04 01:46:35;;;;;;;95.95;13.52;;;;;;;;;;3557386;40;20053;-60
2021/06/04 01:49:05;;;;;;;128.52;22.25;;;;;;;;;;3554285;40;20101;-60
2021/06/04 01:51:40;;;;;;;263.33;103.18;;;;;;;;;;3561549;40;20099;-60
2021/06/04 01:54:12;;;;;;;189.77;106.13;;;;;;;;;;3554390;40;20057;-60
2021/06/04 01:56:42;;;;;;;438.27;374.95;;;;;;;;;;3550860;40;20431;-60
2021/06/04 01:59:19;;;;;;;98.25;13.25;;;;;;;;;;3549235;40;20044;-60
2021/06/04 02:01:50;;;;;;;222.15;157.18;;;;;;;;;;3558704;40;20312;-60
2021/06/04 02:04:21;;;;;;;600.75;534.47;;;;;;;;;;3553423;40;20046;-60
2021/06/04 02:06:49;;;;;;;583.67;504.60;;;;;;;;;;3556187;40;20034;-60
2021/06/04 02:09:19;;;;;;;699.78;613.83;;;;;;;;;;3553022;40;20754;-60
2021/06/04 02:11:51;;;;;;;104.68;41.88;;;;;;;;;;3552549;40;20133;-60
2021/06/04 02:14:25;;;;;;;45.65;9.98;;;;;;;;;;3553378;40;20049;-60
2021/06/04 02:17:11;;;;;;;87.28;12.27;;;;;;;;;;3567041;40;20046;-60
2021/06/04 02:19:48;;;;;;;126.45;16.95;;;;;;;;;;3553434;40;20053;-62
2021/06/04 02:22:22;;;;;;;153.65;19.77;;;;;;;;;;3558993;40;20046;-61
2021/06/04 02:24:57;;;;;;;143.10;19.20;;;;;;;;;;3552268;40;20066;-61
2021/06/04 02:27:25;;;;;;;;;;;;;;;;;;3555712;40;20049;-59
2021/06/04 02:29:55;;;;;;;322.40;232.07;;;;;;;;;;3550105;40;20784;-61
2021/06/04 02:32:42;;;;;;;450.88;343.42;;;;;;;;;;3554125;40;20127;-61
2021/06/04 02:35:14;;;;;;;455.67;396.13;;;;;;;;;;3559948;40;20724;-61
2021/06/04 02:37:42;;;;;;;568.70;492.25;;;;;;;;;;3559188;40;20048;-61
2021/06/04 02:40:21;;;;;;;183.88;54.80;;;;;;;;;;3561920;40;20082;-61
2021/06/04 02:42:52;;;;;;;378.33;297.15;;;;;;;;;;3552668;40;20514;-61
2021/06/04 02:45:32;;;;;;;144.95;47.42;;;;;;;;;;3554309;40;20041;-61
2021/06/04 02:48:01;;;;;;;130.70;16.38;;;;;;;;;;3552334;40;20046;-61
2021/06/04 02:50:27;;;;;;;65.28;11.45;;;;;;;;;;3552710;40;20078;-61
2021/06/04 02:52:53;;;;;;;65.38;11.27;;;;;;;;;;3550888;40;20140;-61
2021/06/04 02:55:30;;;;;;;75.05;11.30;;;;;;;;;;3552703;40;20044;-61
2021/06/04 02:57:57;;;;;;;213.07;89.85;;;;;;;;;;3552168;40;20046;-61
2021/06/04 03:00:37;;;;;;;172.02;46.38;;;;;;;;;;3553403;40;20045;-61
2021/06/04 03:03:04;;;;;;;156.32;26.10;;;;;;;;;;3553486;40;20680;-61
2021/06/04 03:05:32;;;;;;;147.43;23.17;;;;;;;;;;3553160;40;20053;-61
2021/06/04 03:07:59;;;;;;;142.90;20.52;;;;;;;;;;3552107;40;20041;-61
2021/06/04 03:10:25;;;;;;;98.15;14.77;;;;;;;;;;3551111;40;20048;-61
2021/06/04 03:12:52;;;;;;;140.82;18.23;;;;;;;;;;3550747;40;20034;-61
2021/06/04 03:15:24;;;;;;;130.15;16.48;;;;;;;;;;3551900;40;20040;-61
2021/06/04 03:17:52;;;;;;;150.32;19.08;;;;;;;;;;3556424;40;20061;-61
2021/06/04 03:20:22;;;;;;;121.13;16.63;;;;;;;;;;3552534;40;20400;-61
2021/06/04 03:22:48;;;;;;;142.60;18.23;;;;;;;;;;3553674;40;20042;-61
2021/06/04 03:25:20;;;;;;;134.27;17.63;;;;;;;;;;3553009;40;20396;-61
2021/06/04 03:27:49;;;;;;;143.93;17.70;;;;;;;;;;3565232;40;20030;-61
2021/06/04 03:30:25;;;;;;;131.70;17.55;;;;;;;;;;3563756;40;20042;-61
2021/06/04 03:32:52;;;;;;;132.52;17.48;;;;;;;;;;3550864;40;20050;-61
2021/06/04 03:35:18;;;;;;;114.50;14.82;;;;;;;;;;3559342;40;20045;-61
2021/06/04 03:37:44;;;;;;;119.70;15.40;;;;;;;;;;3552358;40;20181;-61
2021/06/04 03:40:14;;;;;;;116.85;14.95;;;;;;;;;;3552098;40;20065;-61
2021/06/04 03:42:42;;;;;;;118.57;15.10;;;;;;;;;;3551393;40;20050;-61
2021/06/04 03:45:11;;;;;;;134.23;16.98;;;;;;;;;;3559346;40;20071;-61
2021/06/04 03:47:37;;;;;;;114.05;14.85;;;;;;;;;;3558649;40;20053;-61
2021/06/04 03:50:07;;;;;;;131.50;16.10;;;;;;;;;;3558902;40;20101;-61
2021/06/04 03:52:34;;;;;;;136.93;17.10;;;;;;;;;;3552555;40;20084;-61
2021/06/04 03:55:00;;;;;;;122.57;16.42;;;;;;;;;;3552669;40;20517;-61
2021/06/04 03:57:29;;;;;;;121.50;15.70;;;;;;;;;;3555032;40;20400;-61
2021/06/04 03:59:55;;;;;;;125.88;16.10;;;;;;;;;;3554048;40;20147;-61
2021/06/04 04:02:23;;;;;;;131.52;17.27;;;;;;;;;;3556223;40;20036;-61
2021/06/04 04:04:55;;;;;;;143.07;18.00;;;;;;;;;;3555481;40;20428;-61
2021/06/04 04:07:21;;;;;;;113.28;15.77;;;;;;;;;;3547422;40;20042;-61
2021/06/04 04:09:48;;;;;;;184.20;23.77;;;;;;;;;;3556229;40;20034;-61
2021/06/04 04:12:14;;;;;;;129.95;17.45;;;;;;;;;;3559857;40;20036;-61
2021/06/04 04:14:42;;;;;;;120.72;16.15;;;;;;;;;;3552782;40;20035;-61
2021/06/04 04:17:08;;;;;;;138.60;17.45;;;;;;;;;;3554391;40;20045;-61
2021/06/04 04:19:34;;;;;;;135.68;17.52;;;;;;;;;;3555252;40;20049;-61
2021/06/04 04:22:01;;;;;;;137.93;16.95;;;;;;;;;;3554381;40;20037;-61
2021/06/04 04:24:32;;;;;;;90.55;13.40;;;;;;;;;;3551991;40;20040;-61
2021/06/04 04:26:59;;;;;;;129.80;16.10;;;;;;;;;;3557218;40;20034;-61
2021/06/04 04:29:25;;;;;;;176.52;21.13;;;;;;;;;;3557438;40;20065;-61
2021/06/04 04:31:57;;;;;;;131.85;16.80;;;;;;;;;;3553611;40;20029;-61
2021/06/04 04:34:23;;;;;;;120.30;15.38;;;;;;;;;;3553879;40;20046;-61
2021/06/04 04:36:52;;;;;;;112.22;14.48;;;;;;;;;;3552627;40;20405;-61
2021/06/04 04:39:20;;;;;;;46.85;9.80;;;;;;;;;;3556210;40;20049;-61
2021/06/04 04:41:47;;;;;;;116.35;17.35;;;;;;;;;;3557478;40;20397;-60
2021/06/04 04:44:13;;;;;;;150.88;23.17;;;;;;;;;;3558334;40;20033;-61
2021/06/04 04:46:40;;;;;;;168.85;68.13;;;;;;;;;;3558434;40;20085;-61
2021/06/04 04:49:06;;;;;;;161.02;44.15;;;;;;;;;;3555213;40;20120;-62
2021/06/04 04:51:33;;;;;;;214.98;102.55;;;;;;;;;;3552355;40;20038;-62
2021/06/04 04:54:00;;;;;;;228.45;124.32;;;;;;;;;;3553094;40;20074;-63
2021/06/04 04:56:26;;;;;;;265.00;161.80;;;;;;;;;;3556869;40;20033;-62
2021/06/04 04:58:53;;;;;;;165.80;96.22;;;;;;;;;;3554471;40;20030;-62
2021/06/04 05:01:20;;;;;;;169.18;47.17;;;;;;;;;;3556080;40;20429;-63
2021/06/04 05:03:46;;;;;;;128.20;17.95;;;;;;;;;;3561181;40;20154;-62
2021/06/04 05:06:12;;;;;;;143.63;19.73;;;;;;;;;;3559126;40;20042;-62
2021/06/04 05:08:39;;;;;;;124.38;18.35;;;;;;;;;;3557367;40;20030;-63
2021/06/04 05:11:05;;;;;;;152.90;21.40;;;;;;;;;;3555605;40;20045;-62
2021/06/04 05:13:32;;;;;;;89.47;15.38;;;;;;;;;;3555762;40;20301;-62
2021/06/04 05:15:59;;;;;;;135.05;18.05;;;;;;;;;;3559141;40;20034;-62
2021/06/04 05:18:26;;;;;;;116.35;17.02;;;;;;;;;;3553642;40;20037;-63
2021/06/04 05:20:52;;;;;;;108.50;17.25;;;;;;;;;;3556841;40;20446;-63
2021/06/04 05:23:19;;;;;;;111.15;15.93;;;;;;;;;;3555596;40;20050;-63
2021/06/04 05:25:48;;;;;;;159.63;20.83;;;;;;;;;;3553497;40;20126;-62
2021/06/04 05:28:16;;;;;;;45.80;12.70;;;;;;;;;;3554161;40;20042;-63
2021/06/04 05:30:44;;;;;;;118.03;17.42;;;;;;;;;;3555613;40;20041;-62
2021/06/04 05:33:12;;;;;;;111.97;16.73;;;;;;;;;;3557269;40;20054;-62
2021/06/04 05:35:39;;;;;;;119.25;17.40;;;;;;;;;;3558202;40;20750;-62
2021/06/04 05:38:05;;;;;;;119.53;16.58;;;;;;;;;;3557847;40;20506;-62
2021/06/04 05:40:33;;;;;;;123.53;17.95;;;;;;;;;;3551183;40;20164;-62
2021/06/04 05:43:00;;;;;;;110.75;16.52;;;;;;;;;;3552571;40;20120;-63
2021/06/04 05:45:28;;;;;;;126.72;18.27;;;;;;;;;;3552312;40;20041;-62
2021/06/04 05:47:55;;;;;;;139.13;18.90;;;;;;;;;;3554398;40;20606;-62
2021/06/04 05:50:22;;;;;;;117.47;16.88;;;;;;;;;;3554445;40;20038;-63
2021/06/04 05:52:48;;;;;;;83.10;13.27;;;;;;;;;;3553736;40;20094;-62
2021/06/04 05:55:16;;;;;;;101.47;15.05;;;;;;;;;;3551989;40;20061;-62
2021/06/04 05:57:42;;;;;;;135.32;18.80;;;;;;;;;;3552296;40;20048;-62
2021/06/04 06:00:12;;;;;;;101.90;15.15;;;;;;;;;;3552725;40;20696;-62
2021/06/04 06:02:38;;;;;;;133.40;18.60;;;;;;;;;;3554354;40;20319;-62
2021/06/04 06:05:05;;;;;;;89.82;14.10;;;;;;;;;;3553760;40;20041;-62
2021/06/04 06:07:31;;;;;;;119.50;16.55;;;;;;;;;;3554928;40;20611;-62
2021/06/04 06:09:57;;;;;;;82.25;14.25;;;;;;;;;;3553896;40;20336;-62
2021/06/04 06:12:23;;;;;;;92.35;15.02;;;;;;;;;;3553275;40;20498;-62
2021/06/04 06:14:49;;;;;;;84.45;14.60;;;;;;;;;;3552605;40;20581;-62
2021/06/04 06:17:15;;;;;;;81.43;14.40;;;;;;;;;;3560250;40;20471;-62
2021/06/04 06:19:41;;;;;;;111.20;16.13;;;;;;;;;;3554099;40;20046;-62
2021/06/04 06:22:07;;;;;;;88.63;14.40;;;;;;;;;;3552100;40;20060;-62
2021/06/04 06:24:34;;;;;;;100.90;15.32;;;;;;;;;;3554639;40;20026;-62
2021/06/04 06:27:00;;;;;;;117.57;17.00;;;;;;;;;;3553728;40;20034;-62
2021/06/04 06:29:29;;;;;;;90.80;14.52;;;;;;;;;;3554375;40;20103;-62
2021/06/04 06:31:56;;;;;;;102.88;15.40;;;;;;;;;;3551906;40;20034;-62
2021/06/04 06:34:22;;;;;;;101.45;15.75;;;;;;;;;;3558216;40;20123;-62
2021/06/04 06:36:48;;;;;;;114.50;16.10;;;;;;;;;;3552239;40;20049;-62
2021/06/04 06:39:16;;;;;;;90.55;14.32;;;;;;;;;;3555490;40;20038;-62
2021/06/04 06:41:43;;;;;;;105.32;15.43;;;;;;;;;;3553163;40;20046;-62
2021/06/04 06:44:10;;;;;;;93.05;14.98;;;;;;;;;;3553711;40;20034;-62
2021/06/04 06:46:37;;;;;;;83.97;14.25;;;;;;;;;;3556285;40;20071;-62
2021/06/04 06:49:03;;;;;;;60.33;13.38;;;;;;;;;;3557109;40;20037;-62
2021/06/04 06:51:32;;;;;;;105.57;16.08;;;;;;;;;;3555325;40;20034;-62
2021/06/04 06:53:59;;;;;;;102.15;14.60;;;;;;;;;;3560362;40;20047;-61
2021/06/04 06:56:26;;;;;;;88.68;14.65;;;;;;;;;;3558355;40;20501;-61
2021/06/04 06:58:52;;;;;;;80.97;13.45;;;;;;;;;;3557476;40;20176;-61
2021/06/04 07:01:18;;;;;;;38.28;12.90;;;;;;;;;;3556045;40;20693;-61
2021/06/04 07:03:45;;;;;;;99.40;15.80;;;;;;;;;;3553191;40;20038;-61
2021/06/04 07:06:22;;;;;;;92.53;17.33;;;;;;;;;;3552696;40;20743;-61
2021/06/04 07:08:48;;;;;;;53.00;13.88;;;;;;;;;;3553540;40;20117;-62
2021/06/04 07:11:14;;;;;;;94.43;15.18;;;;;;;;;;3551423;40;20602;-62
2021/06/04 07:13:40;;;;;;;27.10;10.65;;;;;;;;;;3549385;40;20079;-62
2021/06/04 07:16:08;;;;;;;100.88;15.48;;;;;;;;;;3551975;40;20629;-62
2021/06/04 07:18:34;;;;;;;101.10;15.23;;;;;;;;;;3559564;40;20030;-62
2021/06/04 07:21:00;;;;;;;100.93;15.23;;;;;;;;;;3552600;40;20034;-62
2021/06/04 07:23:27;;;;;;;92.97;14.50;;;;;;;;;;3553101;40;20058;-62
2021/06/04 07:25:54;;;;;;;100.53;15.32;;;;;;;;;;3552695;40;20041;-62
2021/06/04 07:28:21;;;;;;;70.82;13.00;;;;;;;;;;3555942;40;20049;-62
2021/06/04 07:30:49;;;;;;;89.15;13.90;;;;;;;;;;3555147;40;20046;-62
2021/06/04 07:33:20;;;;;;;20.33;9.30;;;;;;;;;;3550707;40;20042;-62
2021/06/04 07:35:47;;;;;;;86.22;13.75;;;;;;;;;;3550137;40;20053;-61
2021/06/04 07:38:13;;;;;;;145.98;19.48;;;;;;;;;;3553195;40;20042;-62
2021/06/04 07:40:40;;;;;;;25.27;10.02;;;;;;;;;;3552507;40;20045;-62
2021/06/04 07:43:10;;;;;;;47.90;12.10;;;;;;;;;;3559494;40;20045;-62
2021/06/04 07:45:38;;;;;;;50.80;11.55;;;;;;;;;;3550339;40;20426;-62
2021/06/04 07:48:05;;;;;;;51.72;11.85;;;;;;;;;;3550065;40;20140;-62
2021/06/04 07:50:31;;;;;;;95.20;14.68;;;;;;;;;;3557999;40;20044;-62
2021/06/04 07:52:57;;;;;;;28.60;10.75;;;;;;;;;;3551027;40;20048;-62
2021/06/04 07:55:24;;;;;;;91.15;14.35;;;;;;;;;;3553978;40;20034;-61
2021/06/04 07:57:51;;;;;;;24.50;10.32;;;;;;;;;;3560630;40;20042;-62
2021/06/04 08:00:22;;;;;;;28.95;9.93;;;;;;;;;;3552901;40;20042;-63
2021/06/04 08:02:49;;;;;;;37.60;11.35;;;;;;;;;;3555959;40;20030;-63
2021/06/04 08:05:16;;;;;;;34.47;11.23;;;;;;;;;;3563823;40;20053;-62
2021/06/04 08:07:42;;;;;;;46.10;14.13;;;;;;;;;;3557113;40;20038;-64
2021/06/04 08:10:09;;;;;;;50.90;12.65;;;;;;;;;;3549281;40;20716;-64
2021/06/04 08:12:37;;;;;;;51.75;12.63;;;;;;;;;;3550943;40;20033;-62
2021/06/04 08:15:06;;;;;;;92.90;15.43;;;;;;;;;;3551548;40;20049;-61
2021/06/04 08:17:32;;;;;;;35.30;11.52;;;;;;;;;;3553652;40;20041;-62
2021/06/04 08:19:59;;;;;;;66.22;13.82;;;;;;;;;;3552026;40;20037;-62
2021/06/04 08:22:25;;;;;;;51.15;12.90;;;;;;;;;;3551415;40;20123;-62
2021/06/04 08:24:51;;;;;;;81.15;15.10;;;;;;;;;;3549843;40;20044;-62
2021/06/04 08:27:19;;;;;;;80.75;14.05;;;;;;;;;;3557326;40;20046;-62
2021/06/04 08:29:48;;;;;;;127.88;19.85;;;;;;;;;;3554683;40;20049;-61
2021/06/04 08:32:14;;;;;;;121.03;17.00;;;;;;;;;;3551255;40;20141;-62
2021/06/04 08:34:41;;;;;;;75.68;14.40;;;;;;;;;;3553476;40;20037;-62
2021/06/04 08:37:07;;;;;;;95.13;14.80;;;;;;;;;;3559059;40;20049;-62
2021/06/04 08:39:37;;;;;;;99.72;15.50;;;;;;;;;;3552872;40;20056;-62
2021/06/04 08:42:03;;;;;;;78.18;13.50;;;;;;;;;;3549670;40;20324;-62
2021/06/04 08:44:32;;;;;;;91.88;14.02;;;;;;;;;;3549011;40;20040;-62
2021/06/04 08:47:00;;;;;;;97.15;17.60;;;;;;;;;;3550991;40;20034;-62
2021/06/04 08:49:30;;;;;;;106.22;15.85;;;;;;;;;;3555071;40;20411;-62
2021/06/04 08:52:02;;;;;;;66.43;11.98;;;;;;;;;;3552302;40;20026;-61
2021/06/04 08:54:31;;;;;;;93.38;14.68;;;;;;;;;;3554123;40;20042;-62
2021/06/04 08:57:09;;;;;;;76.30;13.23;;;;;;;;;;3557006;40;20399;-61
2021/06/04 08:59:35;;;;;;;81.85;14.48;;;;;;;;;;3552757;40;20038;-61
2021/06/04 09:02:06;;;;;;;96.32;15.10;;;;;;;;;;3558268;40;20037;-61
2021/06/04 09:04:37;;;;;;;116.10;15.63;;;;;;;;;;3549033;40;20128;-61
2021/06/04 09:07:06;;;;;;;98.70;13.90;;;;;;;;;;3552485;40;20073;-61
2021/06/04 09:09:42;;;;;;;77.70;13.27;;;;;;;;;;3551474;40;20124;-61
2021/06/04 09:12:15;;;;;;;152.35;22.08;;;;;;;;;;3553840;40;20456;-61
2021/06/04 09:14:41;;;;;;;144.10;20.13;;;;;;;;;;3552222;40;20311;-61
2021/06/04 09:17:22;;;;;;;131.05;19.77;;;;;;;;;;3556603;40;20851;-60
2021/06/04 09:19:58;;;;;;;169.10;26.63;;;;;;;;;;3552017;40;20988;-60
2021/06/04 09:22:26;;;;;;;127.75;18.95;;;;;;;;;;3548165;40;20054;-61
2021/06/04 09:24:52;;;;;;;135.32;19.70;;;;;;;;;;3551798;40;20115;-60
2021/06/04 09:27:27;;;;;;;110.50;16.92;;;;;;;;;;3553436;40;20037;-61
2021/06/04 09:29:54;;;;;;;;;;;;;;;;;;3554385;40;20131;-61
2021/06/04 09:32:21;;;;;;;124.05;19.88;;;;;;;;;;3551178;40;20035;-60
2021/06/04 09:34:48;;;;;;;145.40;20.70;;;;;;;;;;3551966;40;20121;-60
2021/06/04 09:37:23;;;;;;;34.17;9.80;;;;;;;;;;3561632;40;20651;-60
2021/06/04 09:39:54;;;;;;;177.07;29.42;;;;;;;;;;3552096;40;20037;-60
2021/06/04 09:42:20;;;;;;;119.80;17.23;;;;;;;;;;3554815;40;20638;-60
2021/06/04 09:44:58;;;;;;;108.70;21.25;;;;;;;;;;3557907;40;20049;-61
2021/06/04 09:47:24;;;;;;;43.85;11.15;;;;;;;;;;3551510;40;20042;-61
2021/06/04 09:49:51;;;;;;;99.22;18.02;;;;;;;;;;3553175;40;20174;-61
2021/06/04 09:52:37;;;;;;;142.52;20.48;;;;;;;;;;3554192;40;20577;-61
2021/06/04 09:55:19;;;;;;;73.38;13.82;;;;;;;;;;3556764;40;20062;-61
2021/06/04 09:58:00;;;;;;;120.43;16.92;;;;;;;;;;3557816;40;20101;-61
2021/06/04 10:00:31;;;;;;;73.32;13.45;;;;;;;;;;3551316;40;20505;-60
2021/06/04 10:03:15;;;;;;;134.25;17.83;;;;;;;;;;3552709;40;20038;-60
2021/06/04 10:05:42;;;;;;;140.33;26.00;;;;;;;;;;3555289;40;20046;-60
2021/06/04 10:08:34;;;;;;;225.07;106.65;;;;;;;;;;3555819;40;20077;-60
2021/06/04 10:11:03;;;;;;;244.77;147.30;;;;;;;;;;3552871;40;20498;-60
2021/06/04 10:13:48;;;;;;;118.32;16.52;;;;;;;;;;3559176;40;20127;-60
2021/06/04 10:17:36;;;;;;;115.63;16.23;;;;;;;;;;3550524;40;20310;-59
2021/06/04 10:19:31;;;;;;;100.50;14.00;;;;;;;;;;3559103;40;20037;-59
2021/06/04 10:22:10;;;;;;;129.02;17.00;;;;;;;;;;3554400;40;20050;-60
2021/06/04 10:24:38;;;;;;;129.82;19.38;;;;;;;;;;3563523;40;20056;-60
2021/06/04 10:27:07;;;;;;;112.28;17.15;;;;;;;;;;3555197;40;20042;-60
2021/06/04 10:29:33;;;;;;;135.68;17.80;;;;;;;;;;3565163;40;20388;-60
2021/06/04 10:32:05;;;;;;;44.33;10.35;;;;;;;;;;3558778;40;20671;-60
2021/06/04 10:34:47;;;;;;;62.00;12.50;;;;;;;;;;3563373;40;20038;-60
2021/06/04 10:37:22;;;;;;;58.20;10.60;;;;;;;;;;3554130;40;20723;-60
2021/06/04 10:39:55;;;;;;;126.60;19.33;;;;;;;;;;3554716;40;20433;-60
2021/06/04 10:42:33;;;;;;;106.20;14.95;;;;;;;;;;3557611;40;20038;-61
2021/06/04 10:44:59;;;;;;;130.00;18.35;;;;;;;;;;3556877;40;20101;-60
2021/06/04 10:47:44;;;;;;;81.22;13.07;;;;;;;;;;3556510;40;20826;-60
2021/06/04 10:50:15;;;;;;;45.70;10.90;;;;;;;;;;3555650;40;20127;-60
2021/06/04 10:52:50;;;;;;;93.78;14.23;;;;;;;;;;3553163;40;20038;-60
2021/06/04 10:55:30;;;;;;;84.78;12.82;;;;;;;;;;3561824;40;20100;-60
2021/06/04 10:57:59;;;;;;;121.07;16.00;;;;;;;;;;3551380;40;20045;-60
2021/06/04 11:00:25;;;;;;;125.30;19.38;;;;;;;;;;3553409;40;20740;-60
2021/06/04 11:03:10;;;;;;;118.43;17.30;;;;;;;;;;3553701;40;20056;-60
2021/06/04 11:05:45;;;;;;;118.85;16.25;;;;;;;;;;3556388;40;20042;-60
2021/06/04 11:08:11;;;;;;;;;;;;;;;;;;3558340;40;20044;-60
2021/06/04 11:10:37;;;;;;;131.27;18.45;;;;;;;;;;3558414;40;19937;-60
2021/06/04 11:13:03;;;;;;;110.68;15.27;;;;;;;;;;3555550;40;20201;-60
2021/06/04 11:15:29;;;;;;;165.82;21.38;;;;;;;;;;3556424;40;20057;-60
2021/06/04 11:18:22;;;;;;;115.82;16.50;;;;;;;;;;3555321;40;20049;-60
2021/06/04 11:20:51;;;;;;;69.18;12.77;;;;;;;;;;3542741;40;20085;-67
2021/06/04 11:23:27;;;;;;;107.85;15.65;;;;;;;;;;3554863;40;20747;-67
2021/06/04 11:26:06;;;;;;;114.57;16.92;;;;;;;;;;3554651;40;20042;-67
2021/06/04 11:28:47;;;;;;;31.33;9.95;;;;;;;;;;3549662;40;20025;-67
2021/06/04 11:31:20;;;;;;;93.72;13.40;;;;;;;;;;3558977;40;20109;-67
2021/06/04 11:33:50;;;;;;;107.68;16.05;;;;;;;;;;3562538;40;20042;-66
2021/06/04 11:36:24;;;;;;;291.33;194.40;;;;;;;;;;3555621;40;20407;-66
2021/06/04 11:38:52;;;;;;;138.77;19.48;;;;;;;;;;3554653;40;20049;-67
2021/06/04 11:41:18;;;;;;;114.85;15.38;;;;;;;;;;3553564;40;20029;-67
2021/06/04 11:43:47;;;;;;;124.32;19.40;;;;;;;;;;3554192;40;20041;-68
2021/06/04 11:46:20;;;;;;;965.72;873.50;;;;;;;;;;3557825;40;20045;-68
2021/06/04 11:49:01;;;;;;;952.53;861.78;;;;;;;;;;3548219;40;20030;-67
2021/06/04 11:51:28;;;;;;;963.97;875.67;;;;;;;;;;3549961;40;20047;-67
2021/06/04 11:53:56;;;;;;;967.63;878.60;;;;;;;;;;3550815;40;20032;-67
2021/06/04 11:56:52;;;;;;;996.58;906.22;;;;;;;;;;3554784;40;20449;-66
2021/06/04 11:59:18;;;;;;;;;;;;;;;;;;3548999;40;20038;-68
